Time;durP1;ratioP1;P1;durP2;ratioP2;P2;SDS_P1;SDS_P2;PMS_P1;PMS_P2;Temp;Humidity;BMP_temperature;BMP_pressure;BME280_temperature;BME280_humidity;BME280_pressure;Samples;Min_cycle;Max_cycle;Signal;HPM_P1;HPM_P2
2021/08/30 00:01:24;;;;;;;22.90;19.57;;;;;;;;;;5117630;28;20443;-57
2021/08/30 00:03:51;;;;;;;22.57;20.17;;;;;;;;;;5117467;28;20668;-55
2021/08/30 00:06:18;;;;;;;23.10;19.90;;;;;;;;;;5117197;28;20467;-54
2021/08/30 00:08:47;;;;;;;24.73;22.20;;;;;;;;;;5117431;28;20455;-59
2021/08/30 00:11:17;;;;;;;25.33;20.37;;;;;;;;;;5117122;28;20439;-52
2021/08/30 00:13:45;;;;;;;29.70;20.97;;;;;;;;;;5117203;28;20514;-51
2021/08/30 00:16:12;;;;;;;25.13;21.53;;;;;;;;;;5117336;28;20447;-53
2021/08/30 00:18:45;;;;;;;25.43;21.80;;;;;;;;;;5117081;28;20490;-59
2021/08/30 00:21:12;;;;;;;24.77;20.20;;;;;;;;;;5117160;28;20465;-59
2021/08/30 00:23:42;;;;;;;25.80;21.07;;;;;;;;;;5117364;28;20431;-56
2021/08/30 00:26:18;;;;;;;24.93;21.03;;;;;;;;;;5117270;28;20451;-55
2021/08/30 00:28:45;;;;;;;23.40;20.03;;;;;;;;;;5117055;28;20455;-56
2021/08/30 00:31:13;;;;;;;26.10;22.20;;;;;;;;;;5099800;28;20483;-57
2021/08/30 00:33:40;;;;;;;25.67;22.40;;;;;;;;;;5117068;28;20491;-57
2021/08/30 00:36:11;;;;;;;32.80;23.30;;;;;;;;;;5117255;28;20481;-53
2021/08/30 00:38:38;;;;;;;27.67;23.57;;;;;;;;;;5117210;28;20462;-52
2021/08/30 00:41:05;;;;;;;24.67;22.07;;;;;;;;;;5117297;28;20461;-53
2021/08/30 00:43:34;;;;;;;28.43;23.50;;;;;;;;;;5117523;28;20412;-51
2021/08/30 00:46:16;;;;;;;28.30;22.67;;;;;;;;;;5117390;28;20454;-56
2021/08/30 00:48:46;;;;;;;26.17;21.53;;;;;;;;;;5117549;28;20457;-59
2021/08/30 00:51:13;;;;;;;28.40;23.60;;;;;;;;;;5117453;28;20448;-55
2021/08/30 00:53:48;;;;;;;24.83;20.50;;;;;;;;;;5117131;28;20475;-59
2021/08/30 00:56:15;;;;;;;26.67;20.90;;;;;;;;;;5115368;28;20477;-56
2021/08/30 00:58:45;;;;;;;24.83;20.70;;;;;;;;;;5117322;28;20828;-50
2021/08/30 01:01:13;;;;;;;27.20;20.30;;;;;;;;;;5117399;28;20459;-55
2021/08/30 01:03:40;;;;;;;32.43;20.43;;;;;;;;;;5117222;28;20447;-48
2021/08/30 01:06:23;;;;;;;24.63;20.10;;;;;;;;;;5117268;28;20424;-49
2021/08/30 01:08:55;;;;;;;22.83;19.40;;;;;;;;;;5117210;28;20435;-52
2021/08/30 01:11:24;;;;;;;27.03;20.30;;;;;;;;;;5117114;28;20439;-59
2021/08/30 01:13:56;;;;;;;23.17;18.50;;;;;;;;;;5116739;28;20519;-51
2021/08/30 01:16:24;;;;;;;29.70;21.30;;;;;;;;;;5117319;28;20431;-50
2021/08/30 01:18:54;;;;;;;25.53;20.53;;;;;;;;;;5116857;28;20477;-56
2021/08/30 01:21:22;;;;;;;25.00;19.33;;;;;;;;;;5117050;28;20449;-53
2021/08/30 01:23:52;;;;;;;25.70;22.53;;;;;;;;;;5119155;28;20465;-47
2021/08/30 01:26:32;;;;;;;30.30;22.83;;;;;;;;;;5120645;28;20484;-47
2021/08/30 01:29:03;;;;;;;27.53;22.10;;;;;;;;;;5120525;28;20458;-52
2021/08/30 01:31:35;;;;;;;28.60;21.63;;;;;;;;;;5120628;28;20455;-56
2021/08/30 01:34:12;;;;;;;24.57;21.30;;;;;;;;;;5120232;28;20487;-54
2021/08/30 01:36:40;;;;;;;26.70;21.37;;;;;;;;;;5103091;28;20451;-49
2021/08/30 01:39:08;;;;;;;28.20;22.47;;;;;;;;;;5099895;28;20421;-54
2021/08/30 01:41:38;;;;;;;32.40;24.07;;;;;;;;;;5100119;28;20464;-53
2021/08/30 01:44:06;;;;;;;29.70;22.40;;;;;;;;;;5099377;28;20439;-52
2021/08/30 01:46:33;;;;;;;28.37;22.10;;;;;;;;;;5099337;28;20501;-53
2021/08/30 01:49:01;;;;;;;29.70;21.60;;;;;;;;;;5099555;28;20462;-54
2021/08/30 01:51:30;;;;;;;31.37;24.10;;;;;;;;;;5099019;28;20466;-54
2021/08/30 01:53:59;;;;;;;28.43;22.60;;;;;;;;;;5099721;28;20472;-52
2021/08/30 01:56:29;;;;;;;25.13;22.27;;;;;;;;;;5099559;28;20468;-53
2021/08/30 02:01:43;;;;;;;26.77;22.20;;;;;;;;;;5099570;28;20455;-51
2021/08/30 02:04:13;;;;;;;35.27;24.20;;;;;;;;;;5099749;28;20454;-52
2021/08/30 02:06:42;;;;;;;29.77;23.30;;;;;;;;;;5099447;28;20429;-54
2021/08/30 02:09:26;;;;;;;39.60;25.33;;;;;;;;;;5099473;28;20443;-54
2021/08/30 02:11:53;;;;;;;29.00;22.87;;;;;;;;;;5099522;28;20451;-49
2021/08/30 02:14:21;;;;;;;29.93;23.93;;;;;;;;;;5099225;28;20488;-56
2021/08/30 02:16:50;;;;;;;34.83;25.30;;;;;;;;;;5099050;28;20444;-51
2021/08/30 02:19:20;;;;;;;31.33;23.23;;;;;;;;;;5098920;28;20436;-49
2021/08/30 02:21:52;;;;;;;31.10;25.73;;;;;;;;;;5098974;28;20481;-53
2021/08/30 02:24:24;;;;;;;32.60;24.37;;;;;;;;;;5098935;28;20448;-48
2021/08/30 02:26:55;;;;;;;30.10;24.37;;;;;;;;;;5099341;28;20484;-50
2021/08/30 02:29:25;;;;;;;33.00;25.60;;;;;;;;;;5099015;28;20441;-48
2021/08/30 02:31:55;;;;;;;31.90;24.10;;;;;;;;;;5098830;28;20457;-57
2021/08/30 02:37:30;;;;;;;30.80;25.23;;;;;;;;;;5114164;28;20558;-54
2021/08/30 02:39:58;;;;;;;31.50;23.60;;;;;;;;;;5119136;28;20503;-52
2021/08/30 02:42:28;;;;;;;31.87;24.83;;;;;;;;;;5119151;28;20471;-52
2021/08/30 02:44:55;;;;;;;38.30;24.37;;;;;;;;;;5118932;28;20458;-55
2021/08/30 02:47:23;;;;;;;27.90;22.73;;;;;;;;;;5118925;28;20439;-54
2021/08/30 02:49:51;;;;;;;31.63;24.63;;;;;;;;;;5119291;28;20419;-51
2021/08/30 02:52:21;;;;;;;28.10;22.70;;;;;;;;;;5118904;28;20466;-51
2021/08/30 02:54:52;;;;;;;31.63;25.77;;;;;;;;;;5119294;28;20475;-55
2021/08/30 02:57:43;;;;;;;28.43;23.53;;;;;;;;;;5118753;28;20530;-52
2021/08/30 03:00:11;;;;;;;32.20;25.77;;;;;;;;;;5116796;28;20505;-55
2021/08/30 03:02:39;;;;;;;31.40;25.80;;;;;;;;;;5118674;28;20446;-54
2021/08/30 03:05:10;;;;;;;30.33;24.93;;;;;;;;;;5118736;28;20439;-52
2021/08/30 03:07:38;;;;;;;38.60;25.80;;;;;;;;;;5119071;28;20456;-50
2021/08/30 03:10:08;;;;;;;32.67;26.50;;;;;;;;;;5118721;28;20447;-56
2021/08/30 03:12:59;;;;;;;35.43;25.03;;;;;;;;;;5118038;28;20443;-53
2021/08/30 03:15:26;;;;;;;33.43;23.07;;;;;;;;;;5097812;28;20480;-57
2021/08/30 03:17:54;;;;;;;32.10;27.07;;;;;;;;;;5117157;28;20442;-57
2021/08/30 03:20:23;;;;;;;36.73;29.03;;;;;;;;;;5139137;28;20468;-53
2021/08/30 03:22:52;;;;;;;30.50;25.53;;;;;;;;;;5138670;28;20457;-55
2021/08/30 03:25:22;;;;;;;36.67;26.80;;;;;;;;;;5138743;28;20506;-55
2021/08/30 03:27:52;;;;;;;36.07;24.33;;;;;;;;;;5138470;28;20423;-56
2021/08/30 03:30:25;;;;;;;36.60;25.70;;;;;;;;;;5138095;28;20442;-59
2021/08/30 03:32:53;;;;;;;34.40;26.07;;;;;;;;;;5120415;28;20476;-55
2021/08/30 03:35:22;;;;;;;38.20;27.57;;;;;;;;;;5138477;28;20478;-54
2021/08/30 03:37:50;;;;;;;34.90;26.30;;;;;;;;;;5126165;28;20439;-55
2021/08/30 03:40:39;;;;;;;39.93;25.63;;;;;;;;;;5117596;28;20435;-55
2021/08/30 03:43:09;;;;;;;34.53;26.80;;;;;;;;;;5117367;28;20489;-56
2021/08/30 03:45:37;;;;;;;34.20;25.40;;;;;;;;;;5117505;28;20451;-53
2021/08/30 03:48:05;;;;;;;31.70;25.97;;;;;;;;;;5116642;28;20446;-53
2021/08/30 03:50:32;;;;;;;32.10;26.83;;;;;;;;;;5117682;28;20526;-54
2021/08/30 03:53:18;;;;;;;34.37;27.60;;;;;;;;;;5118237;28;20489;-54
2021/08/30 03:58:41;;;;;;;34.63;27.17;;;;;;;;;;5108237;28;20440;-57
2021/08/30 04:01:10;;;;;;;37.70;25.70;;;;;;;;;;5101539;28;20459;-53
2021/08/30 04:03:39;;;;;;;35.13;27.30;;;;;;;;;;5117207;28;20427;-51
2021/08/30 04:06:12;;;;;;;35.47;28.53;;;;;;;;;;5117305;28;20490;-53
2021/08/30 04:08:40;;;;;;;32.20;25.97;;;;;;;;;;5117161;28;20443;-56
2021/08/30 04:11:10;;;;;;;31.90;25.90;;;;;;;;;;5117457;28;20461;-57
2021/08/30 04:13:40;;;;;;;35.17;27.07;;;;;;;;;;5117171;28;20478;-52
2021/08/30 04:16:07;;;;;;;29.07;24.80;;;;;;;;;;5117027;28;20512;-52
2021/08/30 04:18:40;;;;;;;29.63;24.83;;;;;;;;;;5117337;28;20447;-54
2021/08/30 04:21:08;;;;;;;33.57;25.53;;;;;;;;;;5117179;28;20457;-51
2021/08/30 04:23:35;;;;;;;33.57;25.40;;;;;;;;;;5117289;28;20439;-53
2021/08/30 04:26:03;;;;;;;36.17;26.90;;;;;;;;;;5116863;28;20443;-56
2021/08/30 04:28:32;;;;;;;32.20;26.27;;;;;;;;;;5116847;28;20469;-52
2021/08/30 04:31:07;;;;;;;31.43;25.70;;;;;;;;;;5116708;28;20459;-49
2021/08/30 04:33:39;;;;;;;35.40;25.90;;;;;;;;;;5114461;28;20501;-61
2021/08/30 04:36:09;;;;;;;36.60;28.63;;;;;;;;;;5116296;28;20478;-52
2021/08/30 04:38:37;;;;;;;33.57;26.80;;;;;;;;;;5107878;28;20432;-56
2021/08/30 04:41:04;;;;;;;36.20;28.43;;;;;;;;;;5096464;28;20438;-54
2021/08/30 04:43:37;;;;;;;34.10;26.43;;;;;;;;;;5096348;28;20486;-55
2021/08/30 04:46:07;;;;;;;38.10;26.70;;;;;;;;;;5097567;28;20474;-56
2021/08/30 04:48:36;;;;;;;31.80;26.50;;;;;;;;;;5117036;28;20482;-52
2021/08/30 04:51:08;;;;;;;37.13;27.90;;;;;;;;;;5116406;28;20456;-53
2021/08/30 04:53:36;;;;;;;34.90;28.87;;;;;;;;;;5123583;28;20435;-51
2021/08/30 04:56:05;;;;;;;36.90;28.20;;;;;;;;;;5137182;28;20482;-57
2021/08/30 04:58:35;;;;;;;37.10;27.00;;;;;;;;;;5139379;28;20480;-56
2021/08/30 05:03:47;;;;;;;35.53;28.40;;;;;;;;;;5118768;28;20455;-56
2021/08/30 05:06:15;;;;;;;34.57;29.13;;;;;;;;;;5118108;28;20467;-52
2021/08/30 05:08:43;;;;;;;36.00;29.27;;;;;;;;;;5123337;28;20438;-50
2021/08/30 05:11:11;;;;;;;34.30;27.10;;;;;;;;;;5140881;28;20441;-55
2021/08/30 05:13:39;;;;;;;36.13;28.47;;;;;;;;;;5140777;28;20432;-56
2021/08/30 05:16:06;;;;;;;35.03;28.07;;;;;;;;;;5135706;28;20486;-55
2021/08/30 05:18:52;;;;;;;37.60;27.83;;;;;;;;;;5120009;28;20439;-56
2021/08/30 05:21:22;;;;;;;33.87;26.30;;;;;;;;;;5118577;28;20447;-51
2021/08/30 05:23:56;;;;;;;34.43;27.30;;;;;;;;;;5113701;28;20451;-53
2021/08/30 05:26:27;;;;;;;38.90;29.70;;;;;;;;;;5109186;28;20449;-54
2021/08/30 05:31:44;;;;;;;35.83;29.10;;;;;;;;;;5108527;28;20461;-57
2021/08/30 05:34:12;;;;;;;33.30;27.57;;;;;;;;;;5119869;28;20443;-49
2021/08/30 05:36:41;;;;;;;35.70;29.80;;;;;;;;;;5119518;28;20536;-54
2021/08/30 05:39:08;;;;;;;41.27;32.70;;;;;;;;;;5119667;28;20451;-55
2021/08/30 05:41:36;;;;;;;38.07;30.83;;;;;;;;;;5119528;28;20534;-56
2021/08/30 05:44:19;;;;;;;47.83;30.40;;;;;;;;;;5119368;28;20462;-55
2021/08/30 05:46:46;;;;;;;37.33;31.20;;;;;;;;;;5107418;28;20534;-54
2021/08/30 05:49:22;;;;;;;43.23;34.30;;;;;;;;;;5100806;28;20439;-50
2021/08/30 05:51:52;;;;;;;43.57;33.00;;;;;;;;;;5118960;28;20548;-53
2021/08/30 05:54:29;;;;;;;47.57;32.80;;;;;;;;;;5114001;28;20456;-49
2021/08/30 05:56:56;;;;;;;39.70;31.40;;;;;;;;;;5112566;28;20447;-54
2021/08/30 05:59:25;;;;;;;40.83;32.33;;;;;;;;;;5119104;28;20443;-51
2021/08/30 06:05:07;;;;;;;42.83;33.77;;;;;;;;;;5118542;28;20437;-55
2021/08/30 06:07:40;;;;;;;42.10;31.30;;;;;;;;;;5118500;28;20465;-50
2021/08/30 06:10:08;;;;;;;37.63;30.30;;;;;;;;;;5099819;28;20444;-56
2021/08/30 06:12:36;;;;;;;38.73;32.77;;;;;;;;;;5098042;28;20456;-55
2021/08/30 06:15:41;;;;;;;37.70;31.67;;;;;;;;;;5097800;28;20480;-56
2021/08/30 06:18:10;;;;;;;39.83;31.30;;;;;;;;;;5116879;28;20473;-57
2021/08/30 06:20:37;;;;;;;43.87;35.27;;;;;;;;;;5118381;28;20447;-56
2021/08/30 06:23:09;;;;;;;41.03;34.10;;;;;;;;;;5118255;28;20494;-51
2021/08/30 06:25:37;;;;;;;43.43;30.40;;;;;;;;;;5118531;28;20489;-49
2021/08/30 06:28:23;;;;;;;43.93;31.80;;;;;;;;;;5118777;28;20461;-51
2021/08/30 06:31:09;;;;;;;44.93;32.40;;;;;;;;;;5109307;28;20427;-54
2021/08/30 06:36:52;;;;;;;40.90;31.17;;;;;;;;;;5117498;28;20514;-54
2021/08/30 06:39:30;;;;;;;45.00;31.17;;;;;;;;;;5107679;28;20455;-54
2021/08/30 06:42:02;;;;;;;39.17;30.00;;;;;;;;;;5117933;28;20455;-52
2021/08/30 06:44:29;;;;;;;45.87;33.40;;;;;;;;;;5105945;28;20455;-55
2021/08/30 06:46:59;;;;;;;42.17;32.90;;;;;;;;;;5096954;28;20447;-56
2021/08/30 06:49:27;;;;;;;41.40;31.10;;;;;;;;;;5097183;28;20463;-57
2021/08/30 06:51:56;;;;;;;41.90;32.67;;;;;;;;;;5096872;28;20446;-54
2021/08/30 06:54:29;;;;;;;45.77;31.80;;;;;;;;;;5132957;28;20452;-50
2021/08/30 06:57:09;;;;;;;42.50;32.13;;;;;;;;;;5116521;28;20453;-55
2021/08/30 06:59:37;;;;;;;36.27;30.23;;;;;;;;;;5116645;28;20526;-50
2021/08/30 07:02:06;;;;;;;37.73;30.90;;;;;;;;;;5116858;28;20523;-55
2021/08/30 07:07:26;;;;;;;42.70;33.50;;;;;;;;;;5114832;28;20873;-51
2021/08/30 07:09:55;;;;;;;45.53;32.37;;;;;;;;;;5116330;28;20481;-53
2021/08/30 07:12:25;;;;;;;41.93;32.80;;;;;;;;;;5116504;28;20609;-52
2021/08/30 07:14:52;;;;;;;38.97;31.60;;;;;;;;;;5118800;28;20482;-44
2021/08/30 07:17:19;;;;;;;43.07;33.13;;;;;;;;;;5116837;28;20470;-54
2021/08/30 07:22:50;;;;;;;43.73;34.10;;;;;;;;;;5114443;28;20534;-50
2021/08/30 07:28:15;;;;;;;41.93;33.50;;;;;;;;;;5117132;28;20451;-53
2021/08/30 07:30:45;;;;;;;43.50;31.43;;;;;;;;;;5115934;28;20459;-59
2021/08/30 07:33:12;;;;;;;39.77;31.97;;;;;;;;;;5097633;28;20467;-56
2021/08/30 07:35:51;;;;;;;43.80;33.50;;;;;;;;;;5109331;28;20483;-59
2021/08/30 07:38:29;;;;;;;40.47;31.73;;;;;;;;;;5112135;28;20603;-48
2021/08/30 07:40:56;;;;;;;44.87;34.00;;;;;;;;;;5085027;28;20451;-51
2021/08/30 07:43:31;;;;;;;46.37;37.07;;;;;;;;;;5096131;28;20443;-54
2021/08/30 07:46:01;;;;;;;43.13;35.33;;;;;;;;;;5095108;28;20501;-55
2021/08/30 07:48:29;;;;;;;42.90;31.67;;;;;;;;;;5112212;28;20459;-58
2021/08/30 07:50:56;;;;;;;44.73;36.90;;;;;;;;;;5116361;28;20490;-55
2021/08/30 07:53:28;;;;;;;45.13;36.43;;;;;;;;;;5116054;28;20959;-50
2021/08/30 07:55:57;;;;;;;48.80;34.97;;;;;;;;;;5115573;28;20528;-51
2021/08/30 07:58:26;;;;;;;43.40;35.37;;;;;;;;;;5115938;28;20447;-54
2021/08/30 08:00:53;;;;;;;48.13;34.73;;;;;;;;;;5115644;28;20459;-52
2021/08/30 08:03:25;;;;;;;45.73;35.57;;;;;;;;;;5116412;28;20432;-52
2021/08/30 08:06:02;;;;;;;53.03;36.60;;;;;;;;;;5116999;28;20439;-55
2021/08/30 08:08:30;;;;;;;45.03;37.07;;;;;;;;;;5116510;28;20466;-53
2021/08/30 08:10:58;;;;;;;43.00;33.97;;;;;;;;;;5126482;28;20442;-57
2021/08/30 08:13:29;;;;;;;49.97;34.57;;;;;;;;;;5115810;28;20452;-50
2021/08/30 08:15:57;;;;;;;46.03;35.97;;;;;;;;;;5086509;28;20476;-52
2021/08/30 08:18:39;;;;;;;53.23;37.37;;;;;;;;;;5108238;28;20427;-51
2021/08/30 08:21:08;;;;;;;41.60;33.70;;;;;;;;;;5115435;28;20451;-53
2021/08/30 08:23:41;;;;;;;44.47;35.87;;;;;;;;;;5104507;28;20535;-54
2021/08/30 08:26:12;;;;;;;39.27;34.50;;;;;;;;;;5095900;28;20674;-56
2021/08/30 08:28:49;;;;;;;41.73;33.40;;;;;;;;;;5095635;28;20468;-55
2021/08/30 08:31:34;;;;;;;44.90;35.33;;;;;;;;;;5116228;28;20443;-53
2021/08/30 08:34:02;;;;;;;45.43;33.00;;;;;;;;;;5121877;28;20447;-57
2021/08/30 08:36:42;;;;;;;50.37;35.00;;;;;;;;;;5120326;28;20588;-50
2021/08/30 08:39:20;;;;;;;49.50;34.03;;;;;;;;;;5136947;28;20507;-55
2021/08/30 08:41:48;;;;;;;39.57;33.20;;;;;;;;;;5139779;28;20453;-54
2021/08/30 08:44:17;;;;;;;37.60;31.93;;;;;;;;;;5128354;28;20469;-54
2021/08/30 08:46:45;;;;;;;43.43;33.90;;;;;;;;;;5139563;28;20449;-55
2021/08/30 08:51:56;;;;;;;38.70;32.90;;;;;;;;;;5137147;28;20465;-50
2021/08/30 08:54:26;;;;;;;44.73;34.20;;;;;;;;;;5140326;28;20467;-54
2021/08/30 08:56:56;;;;;;;42.03;32.20;;;;;;;;;;5133414;28;20519;-47
2021/08/30 08:59:35;;;;;;;41.80;32.93;;;;;;;;;;5113943;28;20464;-48
2021/08/30 09:02:03;;;;;;;38.53;28.30;;;;;;;;;;5120550;28;20480;-51
2021/08/30 09:04:33;;;;;;;37.50;28.60;;;;;;;;;;5120587;28;20482;-51
2021/08/30 09:07:10;;;;;;;37.23;28.70;;;;;;;;;;5120357;28;20478;-55
2021/08/30 09:09:39;;;;;;;28.87;25.60;;;;;;;;;;5120566;28;20502;-50
2021/08/30 09:12:07;;;;;;;29.83;26.60;;;;;;;;;;5120335;28;20458;-57
2021/08/30 09:14:57;;;;;;;31.40;26.60;;;;;;;;;;5120772;28;20474;-54
2021/08/30 09:17:32;;;;;;;35.23;26.00;;;;;;;;;;5120604;28;20527;-55
2021/08/30 09:20:11;;;;;;;31.50;23.20;;;;;;;;;;5120098;28;20443;-50
2021/08/30 09:22:57;;;;;;;25.03;21.90;;;;;;;;;;5120003;28;20517;-52
2021/08/30 09:25:27;;;;;;;23.43;21.03;;;;;;;;;;5119828;28;20439;-51
2021/08/30 09:27:57;;;;;;;26.07;20.83;;;;;;;;;;5119699;28;20442;-48
2021/08/30 09:30:28;;;;;;;28.67;21.93;;;;;;;;;;5120504;28;20419;-52
2021/08/30 09:32:59;;;;;;;24.73;19.27;;;;;;;;;;5120326;28;20436;-49
2021/08/30 09:35:28;;;;;;;26.90;20.27;;;;;;;;;;5120085;28;20516;-50
2021/08/30 09:37:56;;;;;;;21.73;18.37;;;;;;;;;;5120194;28;20439;-62
2021/08/30 09:40:27;;;;;;;22.07;18.67;;;;;;;;;;5119826;28;20683;-56
2021/08/30 09:43:21;;;;;;;21.33;18.93;;;;;;;;;;5120224;28;20526;-57
2021/08/30 09:45:51;;;;;;;25.90;20.23;;;;;;;;;;5102711;28;20523;-50
2021/08/30 09:48:27;;;;;;;21.60;19.30;;;;;;;;;;5099605;28;20425;-54
2021/08/30 09:50:59;;;;;;;21.80;19.53;;;;;;;;;;5099172;28;20455;-54
2021/08/30 09:53:26;;;;;;;21.63;19.20;;;;;;;;;;5099149;28;20487;-56
2021/08/30 09:56:00;;;;;;;24.50;19.07;;;;;;;;;;5099351;28;20490;-56
2021/08/30 09:58:28;;;;;;;25.67;17.53;;;;;;;;;;5099618;28;20598;-54
2021/08/30 10:01:06;;;;;;;24.93;20.03;;;;;;;;;;5113666;28;20528;-50
2021/08/30 10:03:40;;;;;;;22.87;18.53;;;;;;;;;;5106706;28;20482;-58
2021/08/30 10:06:08;;;;;;;21.27;19.03;;;;;;;;;;5097933;28;20433;-53
2021/08/30 10:08:41;;;;;;;28.80;20.13;;;;;;;;;;5105935;28;20458;-47
2021/08/30 10:11:10;;;;;;;22.13;19.70;;;;;;;;;;5118184;28;20493;-51
2021/08/30 10:13:40;;;;;;;21.80;18.70;;;;;;;;;;5118674;28;20440;-54
2021/08/30 10:16:09;;;;;;;24.07;18.83;;;;;;;;;;5118299;28;20475;-56
2021/08/30 10:18:36;;;;;;;24.20;20.50;;;;;;;;;;5131230;28;20478;-53
2021/08/30 10:21:16;;;;;;;25.67;20.97;;;;;;;;;;5138491;28;20442;-47
2021/08/30 10:23:46;;;;;;;30.70;22.00;;;;;;;;;;5135924;28;20478;-50
2021/08/30 10:26:14;;;;;;;24.10;20.77;;;;;;;;;;5099846;28;20509;-54
2021/08/30 10:28:44;;;;;;;28.77;23.63;;;;;;;;;;5096963;28;20467;-46
2021/08/30 10:31:29;;;;;;;23.10;19.70;;;;;;;;;;5111345;28;20456;-54
2021/08/30 10:34:10;;;;;;;22.23;19.30;;;;;;;;;;5117868;28;20539;-54
2021/08/30 10:36:48;;;;;;;23.30;19.77;;;;;;;;;;5117449;28;20487;-49
2021/08/30 10:39:16;;;;;;;25.13;18.50;;;;;;;;;;5098235;28;20463;-59
2021/08/30 10:41:46;;;;;;;26.47;20.63;;;;;;;;;;5117384;28;20447;-56
2021/08/30 10:44:16;;;;;;;23.23;20.70;;;;;;;;;;5117041;28;20957;-54
2021/08/30 10:46:56;;;;;;;27.47;20.43;;;;;;;;;;5117364;28;20435;-52
2021/08/30 10:49:28;;;;;;;22.70;18.90;;;;;;;;;;5117240;28;20439;-56
2021/08/30 10:52:06;;;;;;;20.70;17.97;;;;;;;;;;5117114;28;20646;-53
2021/08/30 10:54:38;;;;;;;21.30;17.00;;;;;;;;;;5117156;28;20497;-53
2021/08/30 10:57:07;;;;;;;23.23;18.60;;;;;;;;;;5128556;28;20454;-55
2021/08/30 10:59:36;;;;;;;25.30;20.60;;;;;;;;;;5113436;28;20510;-56
2021/08/30 11:02:24;;;;;;;27.53;22.37;;;;;;;;;;5097756;28;20526;-53
2021/08/30 11:04:57;;;;;;;30.30;24.77;;;;;;;;;;5096631;28;20474;-58
2021/08/30 11:07:25;;;;;;;28.67;25.27;;;;;;;;;;5113472;28;20443;-56
2021/08/30 11:09:53;;;;;;;31.67;27.57;;;;;;;;;;5117517;28;20447;-53
2021/08/30 11:15:07;;;;;;;31.50;26.97;;;;;;;;;;5095633;28;20452;-54
2021/08/30 11:17:36;;;;;;;32.50;26.93;;;;;;;;;;5097281;28;20488;-54
2021/08/30 11:20:06;;;;;;;31.70;27.20;;;;;;;;;;5101463;28;20455;-52
2021/08/30 11:25:38;;;;;;;30.03;25.60;;;;;;;;;;5105488;28;20475;-54
2021/08/30 11:28:36;;;;;;;23.13;20.73;;;;;;;;;;5096974;28;20479;-55
2021/08/30 11:31:06;;;;;;;25.30;21.43;;;;;;;;;;5108737;28;20510;-51
2021/08/30 11:33:59;;;;;;;23.23;20.87;;;;;;;;;;5116830;28;20456;-51
2021/08/30 11:39:33;;;;;;;19.97;16.40;;;;;;;;;;5117255;28;20422;-51
2021/08/30 11:42:03;;;;;;;18.97;16.97;;;;;;;;;;5117165;28;20474;-50
2021/08/30 11:44:31;;;;;;;20.43;18.23;;;;;;;;;;5117242;28;20423;-53
2021/08/30 11:47:23;;;;;;;21.77;17.90;;;;;;;;;;5117266;28;20445;-52
2021/08/30 11:49:52;;;;;;;21.50;19.13;;;;;;;;;;5117397;28;20435;-54
2021/08/30 11:52:31;;;;;;;27.00;19.37;;;;;;;;;;5101869;28;20486;-55
2021/08/30 11:55:02;;;;;;;25.10;20.13;;;;;;;;;;5096658;28;20463;-55
2021/08/30 11:57:39;;;;;;;23.70;17.97;;;;;;;;;;5113827;28;20542;-52
2021/08/30 12:00:09;;;;;;;21.83;19.40;;;;;;;;;;5096649;28;20490;-61
2021/08/30 12:02:39;;;;;;;24.03;20.73;;;;;;;;;;5135609;28;20430;-52
2021/08/30 12:07:59;;;;;;;21.23;19.03;;;;;;;;;;5129518;28;20489;-48
2021/08/30 12:10:31;;;;;;;20.83;18.00;;;;;;;;;;5117083;28;20492;-55
2021/08/30 12:13:30;;;;;;;24.13;18.50;;;;;;;;;;5117271;28;20436;-52
2021/08/30 12:16:21;;;;;;;21.77;17.13;;;;;;;;;;5116961;28;20474;-55
2021/08/30 12:18:49;;;;;;;37.20;19.30;;;;;;;;;;5119916;28;20447;-49
2021/08/30 12:21:28;;;;;;;18.53;15.23;;;;;;;;;;5118547;28;20449;-50
2021/08/30 12:26:51;;;;;;;15.60;13.60;;;;;;;;;;5131039;28;20462;-50
2021/08/30 12:29:19;;;;;;;17.07;13.30;;;;;;;;;;5130136;28;20455;-52
2021/08/30 12:32:03;;;;;;;17.50;13.57;;;;;;;;;;5101073;28;20448;-50
2021/08/30 12:34:55;;;;;;;14.13;12.07;;;;;;;;;;5096890;28;20456;-56
2021/08/30 12:37:24;;;;;;;15.43;13.57;;;;;;;;;;5096736;28;20484;-56
2021/08/30 12:39:51;;;;;;;14.30;12.70;;;;;;;;;;5106132;28;20473;-51
2021/08/30 12:42:25;;;;;;;16.03;14.30;;;;;;;;;;5116966;28;20458;-51
2021/08/30 12:44:53;;;;;;;21.83;14.40;;;;;;;;;;5112172;28;20482;-57
2021/08/30 12:47:20;;;;;;;17.37;14.40;;;;;;;;;;5096788;28;20463;-51
2021/08/30 12:49:48;;;;;;;18.07;14.13;;;;;;;;;;5112547;28;20458;-53
2021/08/30 12:52:16;;;;;;;17.00;14.30;;;;;;;;;;5105448;28;20455;-50
2021/08/30 12:57:50;;;;;;;14.77;12.47;;;;;;;;;;5106517;28;20538;-52
2021/08/30 13:00:29;;;;;;;13.67;11.77;;;;;;;;;;5117094;28;20447;-51
2021/08/30 13:03:01;;;;;;;15.13;10.67;;;;;;;;;;5116643;28;20427;-47
2021/08/30 13:05:39;;;;;;;11.17;9.73;;;;;;;;;;5096983;28;20466;-55
2021/08/30 13:08:12;;;;;;;14.90;12.00;;;;;;;;;;5113353;28;20485;-54
2021/08/30 13:10:40;;;;;;;11.17;9.77;;;;;;;;;;5105800;28;20427;-55
2021/08/30 13:13:29;;;;;;;12.03;9.20;;;;;;;;;;5105863;28;20468;-55
2021/08/30 13:16:08;;;;;;;12.30;9.57;;;;;;;;;;5103822;28;20431;-49
2021/08/30 13:18:58;;;;;;;12.13;10.23;;;;;;;;;;5115510;28;20544;-51
2021/08/30 13:21:28;;;;;;;14.17;10.17;;;;;;;;;;5100644;28;20440;-49
2021/08/30 13:24:08;;;;;;;13.03;10.03;;;;;;;;;;5099742;28;20522;-51
2021/08/30 13:26:38;;;;;;;14.37;11.10;;;;;;;;;;5099874;28;20436;-51
2021/08/30 13:29:23;;;;;;;12.43;10.20;;;;;;;;;;5103440;28;20462;-58
2021/08/30 13:31:56;;;;;;;11.30;9.57;;;;;;;;;;5119944;28;20443;-48
2021/08/30 13:34:26;;;;;;;11.90;10.30;;;;;;;;;;5119875;28;20436;-55
2021/08/30 13:39:50;;;;;;;14.30;9.43;;;;;;;;;;5116731;28;20455;-56
2021/08/30 13:42:18;;;;;;;12.40;9.20;;;;;;;;;;5118964;28;20449;-56
2021/08/30 13:44:46;;;;;;;11.10;9.30;;;;;;;;;;5118236;28;20638;-51
2021/08/30 13:50:15;;;;;;;11.60;10.27;;;;;;;;;;5105882;28;20455;-53
2021/08/30 13:52:56;;;;;;;12.63;9.10;;;;;;;;;;5119233;28;20524;-54
2021/08/30 13:55:33;;;;;;;10.87;9.73;;;;;;;;;;5118014;28;20510;-53
2021/08/30 13:58:09;;;;;;;13.20;11.37;;;;;;;;;;5117805;28;20490;-55
2021/08/30 14:00:42;;;;;;;18.13;12.30;;;;;;;;;;5118231;28;20459;-54
2021/08/30 14:03:13;;;;;;;15.13;12.40;;;;;;;;;;5118679;28;20443;-58
2021/08/30 14:05:45;;;;;;;16.40;11.43;;;;;;;;;;5118715;28;20510;-56
2021/08/30 14:08:18;;;;;;;11.70;10.50;;;;;;;;;;5117967;28;20447;-52
2021/08/30 14:10:45;;;;;;;13.77;11.30;;;;;;;;;;5118078;28;20473;-56
2021/08/30 14:13:13;;;;;;;12.63;11.17;;;;;;;;;;5118038;28;20450;-54
2021/08/30 14:15:52;;;;;;;14.30;11.17;;;;;;;;;;5118330;28;20458;-54
2021/08/30 14:24:25;;;;;;;10.40;8.27;;;;;;;;;;5122493;28;20414;-58
2021/08/30 14:26:56;;;;;;;10.43;8.73;;;;;;;;;;5119162;28;20534;-52
2021/08/30 14:29:27;;;;;;;10.97;8.93;;;;;;;;;;5115949;28;20448;-52
2021/08/30 14:34:47;;;;;;;16.43;10.30;;;;;;;;;;5112865;28;20464;-51
2021/08/30 14:37:35;;;;;;;12.30;10.03;;;;;;;;;;5116466;28;20498;-58
2021/08/30 14:40:21;;;;;;;13.97;11.00;;;;;;;;;;5104956;28;20690;-52
2021/08/30 14:43:16;;;;;;;16.57;12.90;;;;;;;;;;5093068;28;20440;-53
2021/08/30 14:45:54;;;;;;;18.20;11.47;;;;;;;;;;5115690;28;20447;-54
2021/08/30 14:48:23;;;;;;;13.23;11.30;;;;;;;;;;5117361;28;20431;-58
2021/08/30 14:50:51;;;;;;;13.57;9.67;;;;;;;;;;5115495;28;20443;-54
2021/08/30 14:53:38;;;;;;;12.47;10.43;;;;;;;;;;5103484;28;20440;-51
2021/08/30 14:56:05;;;;;;;10.63;8.80;;;;;;;;;;5110576;28;20567;-53
2021/08/30 14:58:35;;;;;;;11.23;9.00;;;;;;;;;;5117532;28;20494;-53
2021/08/30 15:01:05;;;;;;;13.07;8.23;;;;;;;;;;5108719;28;20537;-49
2021/08/30 15:03:33;;;;;;;12.70;8.70;;;;;;;;;;5098288;28;20441;-50
2021/08/30 15:06:25;;;;;;;20.67;9.57;;;;;;;;;;5100875;28;20499;-57
2021/08/30 15:09:03;;;;;;;9.23;7.90;;;;;;;;;;5100450;28;20470;-52
2021/08/30 15:11:38;;;;;;;10.83;8.73;;;;;;;;;;5116844;28;20478;-57
2021/08/30 15:14:06;;;;;;;10.03;8.50;;;;;;;;;;5104368;28;20460;-50
2021/08/30 15:16:36;;;;;;;10.90;8.00;;;;;;;;;;5099671;28;20464;-54
2021/08/30 15:19:15;;;;;;;13.67;7.67;;;;;;;;;;5116141;28;20568;-58
2021/08/30 15:21:55;;;;;;;14.27;10.00;;;;;;;;;;5116608;28;20451;-54
2021/08/30 15:24:50;;;;;;;9.00;8.00;;;;;;;;;;5117094;28;20450;-52
2021/08/30 15:27:27;;;;;;;15.40;10.10;;;;;;;;;;5116554;28;20532;-52
2021/08/30 15:29:56;;;;;;;13.03;9.07;;;;;;;;;;5096500;28;20493;-53
2021/08/30 15:32:57;;;;;;;10.63;9.00;;;;;;;;;;5082821;28;20444;-57
2021/08/30 15:38:57;;;;;;;14.67;9.27;;;;;;;;;;5094474;28;20492;-53
2021/08/30 15:41:35;;;;;;;10.20;8.20;;;;;;;;;;5094119;28;20545;-53
2021/08/30 15:44:03;;;;;;;11.00;7.87;;;;;;;;;;5094851;28;20452;-57
2021/08/30 15:46:38;;;;;;;17.23;9.93;;;;;;;;;;5095652;28;20439;-53
2021/08/30 15:49:08;;;;;;;13.87;9.33;;;;;;;;;;5101219;28;20586;-53
2021/08/30 15:51:37;;;;;;;18.97;9.77;;;;;;;;;;5125686;28;20447;-59
2021/08/30 15:54:28;;;;;;;14.37;9.83;;;;;;;;;;5114634;28;20439;-55
2021/08/30 15:56:56;;;;;;;15.07;11.73;;;;;;;;;;5094372;28;20488;-55